Time;durP1;ratioP1;P1;durP2;ratioP2;P2;SDS_P1;SDS_P2;PMS_P1;PMS_P2;Temp;Humidity;BMP_temperature;BMP_pressure;BME280_temperature;BME280_humidity;BME280_pressure;Samples;Min_cycle;Max_cycle;Signal;HPM_P1;HPM_P2
2023/05/15 00:02:17;;;;;;;;;;;;;;;22.33;50.93;101471.03;5071300;28;13851;-57
2023/05/15 00:04:44;;;;;;;;;;;;;;;22.30;51.20;101472.50;5073464;28;9435;-57
2023/05/15 00:07:11;;;;;;;;;;;;;;;22.31;51.14;101470.47;5098322;27;9686;-58
2023/05/15 00:09:38;;;;;;;;;;;;;;;22.32;51.21;101469.34;5099231;27;7756;-58
2023/05/15 00:12:05;;;;;;;;;;;;;;;22.30;51.27;101468.84;5080737;28;7774;-58
2023/05/15 00:14:32;;;;;;;;;;;;;;;22.30;51.42;101472.50;5098372;27;7316;-57
2023/05/15 00:16:59;;;;;;;;;;;;;;;22.29;51.72;101468.00;5079038;28;9132;-57
2023/05/15 00:19:26;;;;;;;;;;;;;;;22.30;51.62;101460.41;5080809;28;8021;-58
2023/05/15 00:21:54;;;;;;;;;;;;;;;22.31;51.60;101467.66;5093704;28;9995;-57
2023/05/15 00:24:21;;;;;;;;;;;;;;;22.29;51.72;101462.38;5082103;28;7783;-58
2023/05/15 00:26:50;;;;;;;;;;;;;;;22.28;51.67;101460.69;5097095;28;10319;-58
2023/05/15 00:29:17;;;;;;;;;;;;;;;22.27;51.86;101459.00;5081140;28;5004;-58
2023/05/15 00:31:44;;;;;;;;;;;;;;;22.29;51.84;101464.34;5076310;28;7858;-58
2023/05/15 00:34:11;;;;;;;;;;;;;;;22.29;52.02;101458.72;5095260;28;7312;-58
2023/05/15 00:36:38;;;;;;;;;;;;;;;22.25;52.15;101463.28;5081273;28;11445;-57
2023/05/15 00:39:05;;;;;;;;;;;;;;;22.27;51.85;101469.44;5099170;27;9235;-58
2023/05/15 00:41:32;;;;;;;;;;;;;;;22.27;51.97;101470.28;5080749;28;15697;-58
2023/05/15 00:43:59;;;;;;;;;;;;;;;22.23;52.16;101463.59;5095968;27;9918;-58
2023/05/15 00:46:27;;;;;;;;;;;;;;;22.27;52.22;101463.81;5063977;28;13022;-58
2023/05/15 00:48:55;;;;;;;;;;;;;;;22.26;52.22;101459.34;5073680;28;7975;-58
2023/05/15 00:51:22;;;;;;;;;;;;;;;22.26;52.25;101468.59;5076923;28;7106;-58
2023/05/15 00:53:51;;;;;;;;;;;;;;;22.25;52.60;101471.72;5100459;27;7747;-58
2023/05/15 00:56:18;;;;;;;;;;;;;;;22.25;52.65;101478.19;5096771;28;9031;-58
2023/05/15 00:58:45;;;;;;;;;;;;;;;22.24;52.45;101475.69;5081992;28;11271;-58
2023/05/15 01:01:13;;;;;;;;;;;;;;;22.23;52.68;101474.00;5086352;28;8999;-59
2023/05/15 01:03:40;;;;;;;;;;;;;;;22.21;52.59;101485.59;5113851;27;10184;-58
2023/05/15 01:06:07;;;;;;;;;;;;;;;22.20;52.74;101483.91;5081357;28;10155;-57
2023/05/15 01:08:38;;;;;;;;;;;;;;;22.21;52.89;101479.97;5080153;28;9716;-58
2023/05/15 01:11:06;;;;;;;;;;;;;;;22.21;52.90;101496.00;5073540;28;8005;-58
2023/05/15 01:13:33;;;;;;;;;;;;;;;22.16;53.02;101486.50;5072459;28;9630;-58
2023/05/15 01:16:00;;;;;;;;;;;;;;;22.14;53.43;101488.78;5078154;28;13091;-58
2023/05/15 01:18:31;;;;;;;;;;;;;;;22.18;53.28;101489.00;5076822;28;8978;-58
2023/05/15 01:21:02;;;;;;;;;;;;;;;22.16;53.24;101492.16;5071943;28;10658;-58
2023/05/15 01:23:30;;;;;;;;;;;;;;;22.17;53.40;101481.69;5080849;28;7801;-57
2023/05/15 01:26:00;;;;;;;;;;;;;;;22.16;53.58;101485.69;5070925;28;9878;-58
2023/05/15 01:28:30;;;;;;;;;;;;;;;22.17;53.40;101481.69;5080123;28;9270;-57
2023/05/15 01:31:04;;;;;;;;;;;;;;;22.14;53.42;101471.06;5079535;28;9712;-57
2023/05/15 01:33:34;;;;;;;;;;;;;;;22.17;53.33;101470.44;5079702;28;11411;-57
2023/05/15 01:36:04;;;;;;;;;;;;;;;22.15;53.49;101479.22;5076827;28;9239;-57
2023/05/15 01:38:34;;;;;;;;;;;;;;;22.17;53.53;101484.50;5081829;28;10050;-57
2023/05/15 01:41:08;;;;;;;;;;;;;;;22.15;53.83;101482.03;5079997;28;5818;-57
2023/05/15 01:43:38;;;;;;;;;;;;;;;22.16;53.75;101482.84;5080509;28;8097;-57
2023/05/15 01:46:06;;;;;;;;;;;;;;;22.16;53.70;101475.25;5109483;27;7759;-57
2023/05/15 01:48:35;;;;;;;;;;;;;;;22.15;53.96;101479.22;5098605;27;5596;-57
2023/05/15 01:51:03;;;;;;;;;;;;;;;22.14;53.94;101476.69;5085275;27;9632;-57
2023/05/15 01:53:31;;;;;;;;;;;;;;;22.14;53.95;101471.06;5093478;28;11874;-57
2023/05/15 01:55:59;;;;;;;;;;;;;;;22.13;54.25;101464.59;5095579;27;13935;-57
2023/05/15 01:58:26;;;;;;;;;;;;;;;22.16;54.43;101454.72;5095941;28;9308;-57
2023/05/15 02:00:54;;;;;;;;;;;;;;;22.14;54.29;101463.44;5076347;28;13028;-57
2023/05/15 02:03:20;;;;;;;;;;;;;;;22.13;54.53;101458.97;5097603;28;10526;-57
2023/05/15 02:05:49;;;;;;;;;;;;;;;22.15;54.42;101461.47;5078975;28;7837;-57
2023/05/15 02:08:16;;;;;;;;;;;;;;;22.13;54.50;101464.59;5096950;28;7958;-57
2023/05/15 02:10:43;;;;;;;;;;;;;;;22.12;54.86;101465.72;5078227;28;8460;-57
2023/05/15 02:13:11;;;;;;;;;;;;;;;22.10;54.93;101461.56;5081326;28;10004;-57
2023/05/15 02:15:38;;;;;;;;;;;;;;;22.09;55.03;101465.50;5078563;28;8017;-57
2023/05/15 02:18:05;;;;;;;;;;;;;;;22.09;55.06;101483.22;5080180;28;13913;-57
2023/05/15 02:20:32;;;;;;;;;;;;;;;22.10;55.21;101476.47;5069140;28;10001;-57
2023/05/15 02:22:59;;;;;;;;;;;;;;;22.08;55.30;101478.75;5079064;28;7779;-57
2023/05/15 02:25:33;;;;;;;;;;;;;;;22.07;55.61;101479.06;5079767;28;7790;-58
2023/05/15 02:28:03;;;;;;;;;;;;;;;22.10;55.58;101478.44;5097975;28;7330;-58
2023/05/15 02:30:30;;;;;;;;;;;;;;;22.08;55.46;101478.75;5077683;28;5879;-58
2023/05/15 02:32:57;;;;;;;;;;;;;;;22.07;55.68;101482.72;5095029;27;7790;-57
2023/05/15 02:35:30;;;;;;;;;;;;;;;22.08;55.69;101481.56;5079277;28;7769;-57
2023/05/15 02:37:59;;;;;;;;;;;;;;;22.09;55.79;101468.31;5079580;28;5697;-57
2023/05/15 02:40:27;;;;;;;;;;;;;;;22.06;55.92;101477.38;5076573;28;9991;-57
2023/05/15 02:42:55;;;;;;;;;;;;;;;22.08;55.89;101486.34;5095620;28;9282;-57
2023/05/15 02:45:23;;;;;;;;;;;;;;;22.08;55.72;101498.44;5093960;28;7317;-60
2023/05/15 02:47:51;;;;;;;;;;;;;;;22.07;55.99;101501.59;5094561;27;12300;-57
2023/05/15 02:50:18;;;;;;;;;;;;;;;22.08;55.88;101500.41;5070318;28;10038;-57
2023/05/15 02:52:45;;;;;;;;;;;;;;;22.07;55.94;101498.78;5079813;28;9638;-57
2023/05/15 02:55:12;;;;;;;;;;;;;;;22.07;55.73;101501.59;5071532;28;7924;-57
2023/05/15 02:57:39;;;;;;;;;;;;;;;22.05;56.12;101506.66;5095545;28;7937;-57
2023/05/15 03:00:09;;;;;;;;;;;;;;;22.05;55.86;101506.66;5095365;27;15672;-57
2023/05/15 03:02:36;;;;;;;;;;;;;;;22.04;56.14;101505.81;5078508;28;9841;-58
2023/05/15 03:05:03;;;;;;;;;;;;;;;22.05;55.97;101512.28;5095879;28;9808;-58
2023/05/15 03:07:30;;;;;;;;;;;;;;;22.04;56.14;101513.44;5098363;27;7818;-57
2023/05/15 03:09:56;;;;;;;;;;;;;;;22.03;56.19;101515.41;5082130;28;7777;-57
2023/05/15 03:12:23;;;;;;;;;;;;;;;22.04;56.19;101516.25;5082971;28;9997;-58
2023/05/15 03:14:50;;;;;;;;;;;;;;;22.03;56.19;101508.97;5081225;28;5387;-57
2023/05/15 03:17:17;;;;;;;;;;;;;;;22.03;56.24;101517.41;5080986;28;8008;-57
2023/05/15 03:19:44;;;;;;;;;;;;;;;22.01;56.35;101512.06;5099301;28;7763;-57
2023/05/15 03:22:11;;;;;;;;;;;;;;;22.01;56.22;101511.22;5082547;28;9270;-57
2023/05/15 03:24:38;;;;;;;;;;;;;;;22.01;56.41;101512.06;5099301;27;7525;-57
2023/05/15 03:27:05;;;;;;;;;;;;;;;22.00;56.47;101518.00;5074647;28;9175;-57
2023/05/15 03:29:32;;;;;;;;;;;;;;;22.00;56.36;101499.13;5081353;28;9985;-57
2023/05/15 03:31:59;;;;;;;;;;;;;;;21.99;56.47;101497.47;5098516;28;10030;-57
2023/05/15 03:34:26;;;;;;;;;;;;;;;22.00;56.53;101498.31;5081769;28;8170;-57
2023/05/15 03:36:53;;;;;;;;;;;;;;;21.98;56.38;101490.19;5081693;28;5445;-57
2023/05/15 03:39:20;;;;;;;;;;;;;;;21.98;56.60;101495.81;5081928;28;12242;-57
2023/05/15 03:41:47;;;;;;;;;;;;;;;21.95;56.58;101502.03;5082116;28;12624;-58
2023/05/15 03:44:13;;;;;;;;;;;;;;;21.94;56.62;101507.97;5094505;28;6030;-58
2023/05/15 03:46:40;;;;;;;;;;;;;;;21.96;56.58;101500.91;5073079;28;14772;-58
2023/05/15 03:49:07;;;;;;;;;;;;;;;21.97;56.76;101504.53;5097736;28;14605;-58
2023/05/15 03:51:34;;;;;;;;;;;;;;;21.97;56.77;101510.19;5095171;28;7354;-57
2023/05/15 03:54:04;;;;;;;;;;;;;;;21.95;56.90;101513.28;5081142;28;7773;-57
2023/05/15 03:56:31;;;;;;;;;;;;;;;21.93;56.90;101512.78;5086636;27;7329;-57
2023/05/15 03:58:58;;;;;;;;;;;;;;;21.93;56.89;101518.41;5097301;28;9611;-58
2023/05/15 04:01:25;;;;;;;;;;;;;;;21.92;56.91;101519.50;5096647;27;7763;-58
2023/05/15 04:03:52;;;;;;;;;;;;;;;21.93;57.05;101528.81;5074313;28;5503;-58
2023/05/15 04:06:19;;;;;;;;;;;;;;;21.91;56.89;101526.25;5076787;28;13903;-58
2023/05/15 04:08:46;;;;;;;;;;;;;;;21.89;56.89;101530.53;5098666;27;9604;-57
2023/05/15 04:11:12;;;;;;;;;;;;;;;21.87;57.21;101532.78;5077325;28;5488;-58
2023/05/15 04:13:39;;;;;;;;;;;;;;;21.87;57.00;101542.06;5082017;28;10823;-58
2023/05/15 04:16:07;;;;;;;;;;;;;;;21.84;57.28;101545.50;5078891;28;11722;-58
2023/05/15 04:18:34;;;;;;;;;;;;;;;21.84;57.05;101551.13;5068328;28;11651;-58
2023/05/15 04:21:01;;;;;;;;;;;;;;;21.83;57.21;101548.59;5081012;28;7867;-58
2023/05/15 04:23:28;;;;;;;;;;;;;;;21.82;57.32;101556.22;5098504;28;9432;-58
2023/05/15 04:25:55;;;;;;;;;;;;;;;21.84;57.14;101567.16;5097212;28;8303;-58
2023/05/15 04:28:22;;;;;;;;;;;;;;;21.82;57.05;101556.22;5082255;28;10169;-58
2023/05/15 04:30:49;;;;;;;;;;;;;;;21.83;57.05;101557.88;5076249;28;10226;-58
2023/05/15 04:33:16;;;;;;;;;;;;;;;21.85;56.98;101566.84;5095916;27;8045;-58
2023/05/15 04:35:43;;;;;;;;;;;;;;;21.82;57.13;101566.63;5095659;28;10893;-58
2023/05/15 04:38:10;;;;;;;;;;;;;;;21.85;56.95;101578.09;5096560;28;9124;-58
2023/05/15 04:40:37;;;;;;;;;;;;;;;21.83;57.20;101573.94;5094999;27;10930;-57
2023/05/15 04:43:04;;;;;;;;;;;;;;;21.80;57.21;101566.94;5081003;28;10865;-57
2023/05/15 04:45:32;;;;;;;;;;;;;;;21.82;57.15;101572.25;5078198;28;5509;-58
2023/05/15 04:47:59;;;;;;;;;;;;;;;21.82;57.19;101575.06;5073782;28;6009;-59
2023/05/15 04:50:26;;;;;;;;;;;;;;;21.81;57.06;101573.38;5079987;28;8076;-57
2023/05/15 04:52:53;;;;;;;;;;;;;;;21.80;56.90;101577.34;5082744;28;10339;-57
2023/05/15 04:55:20;;;;;;;;;;;;;;;21.77;57.25;101572.31;5092487;28;14637;-58
2023/05/15 04:57:47;;;;;;;;;;;;;;;21.76;57.20;101576.28;5072503;28;15110;-58
2023/05/15 05:00:14;;;;;;;;;;;;;;;21.78;56.88;101585.25;5078094;28;9305;-58
2023/05/15 05:02:42;;;;;;;;;;;;;;;21.78;57.00;101579.63;5072742;28;12289;-58
2023/05/15 05:05:13;;;;;;;;;;;;;;;21.76;57.01;101579.91;5085983;27;12325;-58
2023/05/15 05:07:41;;;;;;;;;;;;;;;21.78;56.93;101586.09;5074112;28;5438;-58
2023/05/15 05:10:08;;;;;;;;;;;;;;;21.74;57.17;101591.47;5079775;28;12198;-58
2023/05/15 05:12:35;;;;;;;;;;;;;;;21.74;57.04;101590.66;5080332;28;11710;-59
2023/05/15 05:15:02;;;;;;;;;;;;;;;21.74;57.02;101599.91;5096311;28;7402;-58
2023/05/15 05:17:30;;;;;;;;;;;;;;;21.72;57.04;101593.75;5098125;27;8609;-57
2023/05/15 05:19:57;;;;;;;;;;;;;;;21.66;57.41;101597.78;5080990;28;8248;-57
2023/05/15 05:22:24;;;;;;;;;;;;;;;21.66;57.09;101605.38;5085662;28;11545;-57
2023/05/15 05:24:50;;;;;;;;;;;;;;;21.65;57.14;101598.06;5085448;28;9964;-57
2023/05/15 05:27:17;;;;;;;;;;;;;;;21.68;57.18;101612.38;5073622;28;9795;-57
2023/05/15 05:29:45;;;;;;;;;;;;;;;21.66;57.09;101616.63;5075939;28;10918;-57
2023/05/15 05:32:11;;;;;;;;;;;;;;;21.67;57.18;101615.47;5081013;28;9963;-57
2023/05/15 05:34:38;;;;;;;;;;;;;;;21.64;56.92;101616.91;5096972;27;8008;-58
2023/05/15 05:37:05;;;;;;;;;;;;;;;21.65;56.80;101621.41;5097859;28;11648;-58
2023/05/15 05:39:32;;;;;;;;;;;;;;;21.61;57.01;101619.50;5076947;28;9247;-59
2023/05/15 05:41:59;;;;;;;;;;;;;;;21.62;57.11;101622.00;5082142;28;11780;-58
2023/05/15 05:44:26;;;;;;;;;;;;;;;21.65;57.22;101626.19;5078187;28;7771;-58
2023/05/15 05:46:53;;;;;;;;;;;;;;;21.63;57.11;101626.50;5077308;28;11331;-58
2023/05/15 05:49:19;;;;;;;;;;;;;;;21.64;57.00;101625.34;5097320;28;7769;-58
2023/05/15 05:51:47;;;;;;;;;;;;;;;21.61;57.09;101630.75;5080062;28;7838;-58
2023/05/15 05:54:14;;;;;;;;;;;;;;;21.63;57.13;101629.28;5096170;28;7769;-58
2023/05/15 05:56:41;;;;;;;;;;;;;;;21.61;57.12;101620.34;5079302;28;5490;-58
2023/05/15 05:59:08;;;;;;;;;;;;;;;21.61;57.15;101627.94;5079709;28;7765;-58
2023/05/15 06:01:35;;;;;;;;;;;;;;;21.57;57.20;101629.69;5078475;28;9998;-58
2023/05/15 06:04:02;;;;;;;;;;;;;;;21.60;57.11;101632.72;5079794;28;5367;-58
2023/05/15 06:06:29;;;;;;;;;;;;;;;21.61;57.04;101633.56;5096897;28;7749;-58
2023/05/15 06:08:56;;;;;;;;;;;;;;;21.57;57.39;101640.91;5077561;28;7813;-58
2023/05/15 06:11:23;;;;;;;;;;;;;;;21.60;57.16;101641.16;5079024;28;13270;-58
2023/05/15 06:13:51;;;;;;;;;;;;;;;21.61;57.22;101644.81;5080086;28;9535;-58
2023/05/15 06:16:18;;;;;;;;;;;;;;;21.57;57.23;101638.94;5095453;27;5535;-58
2023/05/15 06:18:45;;;;;;;;;;;;;;;21.59;57.57;101652.69;5095907;28;4815;-62
2023/05/15 06:21:12;;;;;;;;;;;;;;;21.64;57.18;101649.81;5071123;28;10019;-58
2023/05/15 06:23:39;;;;;;;;;;;;;;;21.53;57.69;101651.91;5079361;28;7524;-58
2023/05/15 06:26:06;;;;;;;;;;;;;;;21.50;57.72;101651.66;5070025;28;9235;-59
2023/05/15 06:28:33;;;;;;;;;;;;;;;21.46;57.79;101659.03;5080826;28;5429;-58
2023/05/15 06:30:59;;;;;;;;;;;;;;;21.43;57.35;101660.47;5094578;28;9264;-59
2023/05/15 06:33:26;;;;;;;;;;;;;;;21.47;55.42;101655.94;5094252;28;9305;-58
2023/05/15 06:35:53;;;;;;;;;;;;;;;21.10;49.45;101664.13;5075244;28;13788;-58
2023/05/15 06:38:20;;;;;;;;;;;;;;;21.09;50.95;101660.47;5097898;28;13760;-58
2023/05/15 06:40:47;;;;;;;;;;;;;;;21.17;50.44;101665.50;5075157;28;11266;-58
2023/05/15 06:43:14;;;;;;;;;;;;;;;21.13;51.79;101670.03;5082259;28;10943;-58
2023/05/15 06:45:41;;;;;;;;;;;;;;;21.15;52.24;101670.59;5080995;28;12864;-58
2023/05/15 06:48:08;;;;;;;;;;;;;;;21.18;51.99;101666.34;5078906;28;11680;-58
2023/05/15 06:50:35;;;;;;;;;;;;;;;21.17;52.48;101671.13;5100496;27;8711;-58
2023/05/15 06:53:02;;;;;;;;;;;;;;;21.17;52.50;101670.28;5075900;28;9371;-58
2023/05/15 06:55:29;;;;;;;;;;;;;;;21.14;52.50;101684.91;5082942;28;6647;-58
2023/05/15 06:57:56;;;;;;;;;;;;;;;21.10;52.68;101681.84;5083830;28;10329;-58
2023/05/15 07:00:23;;;;;;;;;;;;;;;21.12;52.77;101689.97;5081219;28;7775;-57
2023/05/15 07:02:50;;;;;;;;;;;;;;;21.11;52.90;101685.50;5082672;28;9246;-57
2023/05/15 07:05:17;;;;;;;;;;;;;;;21.10;52.99;101693.06;5073542;28;7610;-57
2023/05/15 07:07:43;;;;;;;;;;;;;;;21.13;52.78;101691.66;5073731;28;8334;-57
2023/05/15 07:10:10;;;;;;;;;;;;;;;21.08;52.90;101692.50;5098437;28;8128;-57
2023/05/15 07:12:38;;;;;;;;;;;;;;;21.09;52.63;101690.53;5102238;27;7873;-57
2023/05/15 07:15:06;;;;;;;;;;;;;;;21.09;52.62;101696.16;5071067;28;7336;-59
2023/05/15 07:17:33;;;;;;;;;;;;;;;21.07;52.89;101701.25;5081935;28;9866;-58
2023/05/15 07:20:00;;;;;;;;;;;;;;;21.06;52.50;101692.00;5094115;28;7565;-58
2023/05/15 07:22:28;;;;;;;;;;;;;;;21.06;52.90;101693.97;5083485;28;12887;-58
2023/05/15 07:24:58;;;;;;;;;;;;;;;21.09;52.73;101694.19;5079621;28;7804;-58
2023/05/15 07:27:25;;;;;;;;;;;;;;;21.08;52.81;101698.13;5079960;28;7743;-63
2023/05/15 07:29:52;;;;;;;;;;;;;;;21.18;52.67;101698.09;5081634;28;12531;-60
2023/05/15 07:32:20;;;;;;;;;;;;;;;21.21;52.45;101689.06;5099202;28;9005;-58
2023/05/15 07:34:47;;;;;;;;;;;;;;;21.21;52.35;101699.50;5082997;28;13018;-58
2023/05/15 07:37:14;;;;;;;;;;;;;;;21.21;52.63;101693.88;5082772;28;9604;-59
2023/05/15 07:39:42;;;;;;;;;;;;;;;21.10;52.60;101695.88;5097940;27;12215;-59
2023/05/15 07:42:09;;;;;;;;;;;;;;;21.08;52.89;101692.50;5064779;27;14247;-58
2023/05/15 07:44:37;;;;;;;;;;;;;;;21.06;52.89;101706.03;5078122;27;10817;-58
2023/05/15 07:47:04;;;;;;;;;;;;;;;21.04;53.07;101708.28;5075593;27;9576;-58
2023/05/15 07:49:31;;;;;;;;;;;;;;;21.04;52.91;101701.81;5090634;27;11616;-58
2023/05/15 07:51:58;;;;;;;;;;;;;;;21.05;52.68;101706.31;5095461;27;15396;-58
2023/05/15 07:54:25;;;;;;;;;;;;;;;21.06;52.75;101702.38;5072122;27;9983;-58
2023/05/15 07:56:53;;;;;;;;;;;;;;;21.04;52.78;101699.84;5103032;27;11363;-58
2023/05/15 07:59:20;;;;;;;;;;;;;;;21.02;53.00;101713.38;5103264;27;7762;-58
2023/05/15 08:01:47;;;;;;;;;;;;;;;21.03;52.82;101712.22;5083267;27;12737;-58
2023/05/15 08:04:14;;;;;;;;;;;;;;;21.02;52.56;101716.19;5084953;27;8128;-60
2023/05/15 08:06:41;;;;;;;;;;;;;;;21.01;52.54;101716.47;5086126;27;9267;-58
2023/05/15 08:09:11;;;;;;;;;;;;;;;21.02;52.79;101716.19;5107263;27;7899;-58
2023/05/15 08:11:38;;;;;;;;;;;;;;;21.01;52.65;101714.50;5080150;27;7821;-59
2023/05/15 08:14:08;;;;;;;;;;;;;;;20.98;52.51;101714.25;5105086;27;12323;-59
2023/05/15 08:16:39;;;;;;;;;;;;;;;20.99;52.56;101713.09;5100521;27;7795;-58
2023/05/15 08:19:06;;;;;;;;;;;;;;;20.98;52.45;101711.44;5077767;27;7755;-58
2023/05/15 08:21:33;;;;;;;;;;;;;;;20.96;52.77;101717.34;5074714;27;9363;-58
2023/05/15 08:24:01;;;;;;;;;;;;;;;20.97;52.42;101723.81;5074835;27;10182;-58
2023/05/15 08:26:28;;;;;;;;;;;;;;;20.98;52.32;101723.53;5099698;27;7960;-58
2023/05/15 08:28:55;;;;;;;;;;;;;;;20.96;52.13;101717.34;5077261;27;7978;-60
2023/05/15 08:31:22;;;;;;;;;;;;;;;20.91;52.26;101725.81;5082713;27;7839;-58
2023/05/15 08:33:49;;;;;;;;;;;;;;;20.91;52.56;101711.78;5081178;27;15718;-58
2023/05/15 08:36:18;;;;;;;;;;;;;;;20.92;52.42;101726.66;5081067;27;9489;-58
2023/05/15 08:38:45;;;;;;;;;;;;;;;20.92;52.23;101721.03;5098208;27;10040;-58
2023/05/15 08:41:21;;;;;;;;;;;;;;;20.90;52.09;101734.53;5100029;27;12307;-58
2023/05/15 08:44:07;;;;;;;;;;;;;;;20.90;52.33;101726.94;5107100;27;10004;-59
2023/05/15 08:46:34;;;;;;;;;;;;;;;20.91;52.12;101730.59;5074223;27;7949;-58
2023/05/15 08:49:06;;;;;;;;;;;;;;;20.90;52.21;101723.28;5123063;27;8214;-59
2023/05/15 08:51:34;;;;;;;;;;;;;;;20.88;52.24;101720.78;5073971;27;10528;-58
2023/05/15 08:54:01;;;;;;;;;;;;;;;20.86;52.05;101731.47;5082647;27;5584;-58
2023/05/15 08:56:28;;;;;;;;;;;;;;;20.85;52.36;101732.59;5075688;27;11880;-58
2023/05/15 08:58:55;;;;;;;;;;;;;;;20.84;52.22;101728.13;5083305;27;9201;-59
2023/05/15 09:01:23;;;;;;;;;;;;;;;20.84;51.96;101731.78;5079999;27;8141;-58
2023/05/15 09:03:50;;;;;;;;;;;;;;;20.84;52.09;101723.34;5105461;27;7332;-58
2023/05/15 09:06:17;;;;;;;;;;;;;;;20.86;52.05;101732.31;5099304;27;9973;-59
2023/05/15 09:08:45;;;;;;;;;;;;;;;20.86;51.65;101731.47;5084455;27;10989;-59
2023/05/15 09:11:12;;;;;;;;;;;;;;;20.85;52.05;101736.25;5096240;27;9617;-58
2023/05/15 09:13:39;;;;;;;;;;;;;;;20.84;51.78;101728.97;5097121;27;14238;-59
2023/05/15 09:16:06;;;;;;;;;;;;;;;20.84;51.69;101730.94;5097760;27;16326;-58
2023/05/15 09:18:34;;;;;;;;;;;;;;;20.83;51.78;101732.91;5093364;27;8568;-58
2023/05/15 09:21:20;;;;;;;;;;;;;;;20.86;51.28;101737.09;5079070;27;7773;-59
2023/05/15 09:23:48;;;;;;;;;;;;;;;20.84;51.49;101728.97;5081234;27;11616;-58
2023/05/15 09:26:15;;;;;;;;;;;;;;;20.84;51.72;101734.59;5074330;27;11401;-59
2023/05/15 09:28:42;;;;;;;;;;;;;;;20.83;51.64;101727.28;5107697;27;9712;-58
2023/05/15 09:31:10;;;;;;;;;;;;;;;20.83;51.71;101721.66;5081453;27;7756;-58
2023/05/15 09:33:38;;;;;;;;;;;;;;;20.84;51.47;101728.97;5100536;27;12839;-58
2023/05/15 09:36:06;;;;;;;;;;;;;;;20.83;51.37;101735.72;5104089;27;11859;-58
2023/05/15 09:38:34;;;;;;;;;;;;;;;20.86;51.32;101731.47;5106668;27;10777;-58
2023/05/15 09:41:03;;;;;;;;;;;;;;;20.86;51.10;101732.31;5099052;27;11380;-58
2023/05/15 09:43:33;;;;;;;;;;;;;;;20.88;51.22;101732.03;5084123;27;9146;-57
2023/05/15 09:46:00;;;;;;;;;;;;;;;20.90;50.96;101734.53;5081807;27;8261;-58
2023/05/15 09:48:28;;;;;;;;;;;;;;;20.91;51.20;101739.03;5073330;27;7521;-58
2023/05/15 09:50:56;;;;;;;;;;;;;;;20.92;50.95;101737.91;5073013;27;10759;-58
2023/05/15 09:53:27;;;;;;;;;;;;;;;20.96;50.85;101745.44;5005139;28;7585;-60
2023/05/15 09:55:55;;;;;;;;;;;;;;;20.96;50.85;101739.81;5004679;28;17670;-58
2023/05/15 09:58:22;;;;;;;;;;;;;;;20.98;50.61;101739.53;5014207;28;7949;-58
2023/05/15 10:00:49;;;;;;;;;;;;;;;21.00;50.66;101745.69;5022023;28;7672;-58
2023/05/15 10:03:19;;;;;;;;;;;;;;;21.02;50.65;101740.63;4995386;28;10602;-58
2023/05/15 10:05:46;;;;;;;;;;;;;;;21.04;50.71;101747.63;5020670;28;9191;-58
2023/05/15 10:08:14;;;;;;;;;;;;;;;21.05;50.53;101746.50;5009771;28;8185;-58
2023/05/15 10:10:42;;;;;;;;;;;;;;;21.07;50.40;101747.06;5006530;28;8986;-58
2023/05/15 10:13:10;;;;;;;;;;;;;;;21.09;50.14;101741.13;5021573;28;7988;-58
2023/05/15 10:15:37;;;;;;;;;;;;;;;21.09;50.28;101741.13;4989895;28;10543;-58
2023/05/15 10:18:05;;;;;;;;;;;;;;;21.13;50.12;101747.88;5057575;27;7791;-58
2023/05/15 10:20:34;;;;;;;;;;;;;;;21.13;49.95;101751.53;5102967;27;10559;-58
2023/05/15 10:23:02;;;;;;;;;;;;;;;21.15;50.09;101735.22;5118121;27;11468;-61
2023/05/15 10:25:32;;;;;;;;;;;;;;;21.15;50.34;101734.38;5082623;27;19956;-58
2023/05/15 10:28:00;;;;;;;;;;;;;;;21.18;50.30;101739.41;5080339;27;11384;-57
2023/05/15 10:30:27;;;;;;;;;;;;;;;21.18;50.10;101728.16;5081373;27;11703;-58
2023/05/15 10:32:55;;;;;;;;;;;;;;;21.19;50.12;101733.50;5089035;27;10534;-59
2023/05/15 10:35:22;;;;;;;;;;;;;;;21.20;50.11;101717.47;5082762;27;5429;-58
2023/05/15 10:37:49;;;;;;;;;;;;;;;21.23;50.22;101734.59;5099807;27;9392;-58
2023/05/15 10:40:16;;;;;;;;;;;;;;;21.24;50.08;101732.63;5082134;27;11733;-58
2023/05/15 10:42:44;;;;;;;;;;;;;;;21.26;49.89;101730.34;5119312;27;7790;-58
2023/05/15 10:45:12;;;;;;;;;;;;;;;21.25;50.20;101737.09;5079785;27;15040;-58
2023/05/15 10:47:40;;;;;;;;;;;;;;;21.27;50.30;101746.06;5080004;27;21774;-58
2023/05/15 10:50:08;;;;;;;;;;;;;;;21.30;50.20;101737.06;5078003;27;14086;-58
2023/05/15 10:52:36;;;;;;;;;;;;;;;21.31;50.19;101749.97;5089433;27;11260;-58
2023/05/15 10:55:09;;;;;;;;;;;;;;;21.30;50.13;101748.31;5071419;27;7958;-58
2023/05/15 10:57:37;;;;;;;;;;;;;;;21.33;49.96;101764.59;5083153;27;9380;-58
2023/05/15 11:00:23;;;;;;;;;;;;;;;21.34;50.00;101760.66;5069251;27;9257;-58
2023/05/15 11:02:54;;;;;;;;;;;;;;;21.29;50.00;101761.53;5098280;27;6106;-58
2023/05/15 11:05:29;;;;;;;;;;;;;;;21.32;49.91;101756.44;5096347;27;5371;-58
2023/05/15 11:07:59;;;;;;;;;;;;;;;21.30;50.11;101754.75;5100986;27;10741;-58
2023/05/15 11:10:27;;;;;;;;;;;;;;;21.32;50.11;101742.38;5098403;27;15693;-58
2023/05/15 11:12:54;;;;;;;;;;;;;;;21.36;49.80;101758.34;5081027;27;7946;-58
2023/05/15 11:15:21;;;;;;;;;;;;;;;21.35;49.95;101755.88;5080250;27;19287;-58
2023/05/15 11:17:51;;;;;;;;;;;;;;;21.33;50.17;101755.31;5105637;27;9261;-58
2023/05/15 11:20:19;;;;;;;;;;;;;;;21.34;50.00;101746.59;5064128;27;14176;-58
2023/05/15 11:22:56;;;;;;;;;;;;;;;21.35;49.95;101759.47;5081635;27;10016;-58
2023/05/15 11:25:31;;;;;;;;;;;;;;;21.35;49.94;101765.09;5077983;27;9966;-58
2023/05/15 11:27:58;;;;;;;;;;;;;;;21.33;49.98;101772.16;5083493;27;16902;-58
2023/05/15 11:30:28;;;;;;;;;;;;;;;21.37;49.72;101762.00;5074057;27;14163;-58
2023/05/15 11:32:57;;;;;;;;;;;;;;;21.39;49.85;101757.78;5080526;27;20403;-58
2023/05/15 11:35:28;;;;;;;;;;;;;;;21.36;49.81;101763.13;5100500;27;8056;-58
2023/05/15 11:37:55;;;;;;;;;;;;;;;21.36;49.99;101763.97;5120019;27;6521;-58
2023/05/15 11:40:23;;;;;;;;;;;;;;;21.34;49.92;101773.84;5118206;27;11352;-58
2023/05/15 11:42:53;;;;;;;;;;;;;;;21.40;49.82;101775.47;5072604;28;19724;-58
2023/05/15 11:45:21;;;;;;;;;;;;;;;21.39;49.73;101777.47;5097027;27;11139;-58
2023/05/15 11:47:48;;;;;;;;;;;;;;;21.42;49.70;101771.25;5099025;27;8483;-58
2023/05/15 11:50:15;;;;;;;;;;;;;;;21.38;50.05;101772.97;5095981;28;7991;-58
2023/05/15 11:52:43;;;;;;;;;;;;;;;21.36;49.74;101771.56;5100231;28;11053;-58
2023/05/15 11:55:10;;;;;;;;;;;;;;;21.35;49.94;101770.72;5095604;28;11226;-58
2023/05/15 11:57:37;;;;;;;;;;;;;;;21.36;50.11;101769.59;5115801;27;7975;-58
2023/05/15 12:00:05;;;;;;;;;;;;;;;21.34;49.86;101771.03;5095908;28;11305;-58
2023/05/15 12:02:32;;;;;;;;;;;;;;;21.35;49.64;101784.78;5097773;28;15460;-58
2023/05/15 12:05:00;;;;;;;;;;;;;;;21.40;49.49;101775.47;5098687;28;11127;-58
2023/05/15 12:07:27;;;;;;;;;;;;;;;21.41;49.77;101778.00;5099725;28;10170;-58
2023/05/15 12:09:54;;;;;;;;;;;;;;;21.41;49.70;101785.59;5099465;28;7994;-58
2023/05/15 12:12:25;;;;;;;;;;;;;;;21.36;49.78;101783.66;5099326;28;9465;-58
2023/05/15 12:14:56;;;;;;;;;;;;;;;21.39;49.91;101779.44;5098668;27;9925;-58
2023/05/15 12:17:23;;;;;;;;;;;;;;;21.36;49.89;101778.03;5099742;28;7532;-58
2023/05/15 12:19:51;;;;;;;;;;;;;;;21.36;50.04;101780.00;5099581;28;5520;-58
2023/05/15 12:22:18;;;;;;;;;;;;;;;21.41;49.55;101783.63;5099620;28;11030;-58
2023/05/15 12:24:45;;;;;;;;;;;;;;;21.40;49.61;101775.47;5099101;27;11619;-58
2023/05/15 12:27:12;;;;;;;;;;;;;;;21.40;49.67;101770.69;5099775;28;5361;-58
2023/05/15 12:29:39;;;;;;;;;;;;;;;21.42;49.77;101770.41;5098459;28;10555;-58
2023/05/15 12:32:07;;;;;;;;;;;;;;;21.39;49.88;101771.00;5099311;28;8061;-58
2023/05/15 12:34:34;;;;;;;;;;;;;;;21.37;49.75;101770.44;5099448;28;7485;-58
2023/05/15 12:37:01;;;;;;;;;;;;;;;21.36;49.75;101780.84;5099536;28;9573;-58
2023/05/15 12:39:29;;;;;;;;;;;;;;;21.34;49.64;101777.50;5097899;27;7971;-58
2023/05/15 12:41:57;;;;;;;;;;;;;;;21.35;49.52;101779.16;5099389;28;9251;-58
2023/05/15 12:44:26;;;;;;;;;;;;;;;21.35;49.67;101778.34;5095274;28;9550;-58
2023/05/15 12:46:54;;;;;;;;;;;;;;;21.37;49.48;101782.53;5096548;28;10063;-58